Time;durP1;ratioP1;P1;durP2;ratioP2;P2;SDS_P1;SDS_P2;PMS_P1;PMS_P2;Temp;Humidity;BMP_temperature;BMP_pressure;BME280_temperature;BME280_humidity;BME280_pressure;Samples;Min_cycle;Max_cycle;Signal;HPM_P1;HPM_P2
2021/03/15 00:01:21;;;;;;;14.60;8.50;;;;;;;2.43;72.90;99162.00;124503;1109;104139;-78
2021/03/15 00:03:48;;;;;;;12.30;8.33;;;;;;;2.40;72.94;99162.05;124510;1106;104153;-79
2021/03/15 00:06:15;;;;;;;15.47;8.13;;;;;;;2.37;73.02;99160.39;124578;1106;105312;-78
2021/03/15 00:08:43;;;;;;;15.67;8.43;;;;;;;2.35;73.07;99169.86;124498;1109;104172;-78
2021/03/15 00:11:10;;;;;;;16.63;8.23;;;;;;;2.33;73.02;99166.44;124564;1106;102840;-79
2021/03/15 00:13:37;;;;;;;20.17;9.67;;;;;;;2.30;73.12;99174.20;124480;1105;104258;-79
2021/03/15 00:16:04;;;;;;;14.95;9.35;;;;;;;2.27;72.88;99174.26;124580;1109;104280;-78
2021/03/15 00:18:32;;;;;;;16.00;9.27;;;;;;;2.26;72.81;99189.72;124569;1106;104132;-79
2021/03/15 00:20:59;;;;;;;14.67;8.53;;;;;;;2.23;73.02;99189.77;124523;1105;104175;-78
2021/03/15 00:23:26;;;;;;;15.63;8.57;;;;;;;2.21;72.84;99194.09;124501;1106;104317;-79
2021/03/15 00:25:54;;;;;;;13.83;8.67;;;;;;;2.19;73.29;99200.99;124496;1106;104382;-79
2021/03/15 00:28:21;;;;;;;15.67;8.90;;;;;;;2.17;73.04;99201.02;124722;1105;104618;-79
2021/03/15 00:30:48;;;;;;;14.03;8.65;;;;;;;2.16;72.90;99208.77;124517;1106;104175;-79
2021/03/15 00:33:15;;;;;;;15.40;8.53;;;;;;;2.12;73.01;99213.08;124514;1106;104137;-79
2021/03/15 00:35:42;;;;;;;16.87;8.93;;;;;;;2.11;72.96;99206.23;124560;1109;104085;-80
2021/03/15 00:38:09;;;;;;;19.17;9.03;;;;;;;2.08;73.13;99211.42;124546;1105;104156;-78
2021/03/15 00:40:36;;;;;;;14.43;8.93;;;;;;;2.04;73.19;99204.63;124568;1105;104213;-78
2021/03/15 00:43:03;;;;;;;15.73;8.63;;;;;;;2.01;73.09;99212.39;124747;1105;104319;-78
2021/03/15 00:45:31;;;;;;;18.00;9.20;;;;;;;1.96;73.16;99207.30;124601;1106;104248;-78
2021/03/15 00:47:58;;;;;;;15.53;8.97;;;;;;;1.94;73.11;99203.90;124528;1109;104367;-78
2021/03/15 00:50:40;;;;;;;15.60;9.20;;;;;;;1.92;73.19;99199.66;124503;1109;104018;-78
2021/03/15 00:53:12;;;;;;;15.57;9.37;;;;;;;1.90;73.23;99206.54;124544;1106;104234;-78
2021/03/15 00:55:39;;;;;;;14.75;8.50;;;;;;;1.88;73.13;99205.72;124525;1106;105037;-78
2021/03/15 00:58:07;;;;;;;14.17;8.57;;;;;;;1.86;73.33;99204.89;124475;1106;105903;-78
2021/03/15 01:00:37;;;;;;;16.47;8.87;;;;;;;1.87;73.35;99206.59;124683;1105;104393;-78
2021/03/15 01:03:13;;;;;;;15.43;8.80;;;;;;;1.86;73.29;99210.03;124539;1106;104153;-78
2021/03/15 01:05:48;;;;;;;15.27;8.50;;;;;;;1.83;73.29;99208.36;124545;1106;104072;-78
2021/03/15 01:08:42;;;;;;;22.60;13.00;;;;;;;1.79;73.75;99207.52;124552;1106;104105;-78
2021/03/15 01:11:32;;;;;;;17.80;9.43;;;;;;;1.79;73.50;99201.53;124749;1105;101928;-78
2021/03/15 01:14:01;;;;;;;18.37;10.23;;;;;;;1.76;73.61;99202.42;124491;1106;104155;-78
2021/03/15 01:17:01;;;;;;;19.10;9.70;;;;;;;1.74;73.48;99209.31;124581;1105;104146;-79
2021/03/15 01:19:31;;;;;;;18.03;9.20;;;;;;;1.72;73.43;99200.77;124491;1106;104178;-78
2021/03/15 01:21:58;;;;;;;17.60;8.97;;;;;;;1.70;73.66;99201.67;124519;1105;104172;-79
2021/03/15 01:24:25;;;;;;;15.80;9.20;;;;;;;1.71;73.69;99216.22;124510;1105;101887;-80
2021/03/15 01:26:52;;;;;;;15.00;8.50;;;;;;;1.68;73.69;99209.41;124784;1105;104137;-78
2021/03/15 01:29:19;;;;;;;16.63;9.20;;;;;;;1.65;73.46;99212.02;124520;1105;104268;-78
2021/03/15 01:31:46;;;;;;;17.63;9.27;;;;;;;1.64;73.68;99214.61;124524;1106;104246;-78
2021/03/15 01:34:13;;;;;;;14.28;8.75;;;;;;;1.61;73.73;99207.77;124863;1105;102503;-79
2021/03/15 01:36:45;;;;;;;15.37;9.50;;;;;;;1.60;73.61;99200.92;124525;1109;104345;-78
2021/03/15 01:39:12;;;;;;;18.32;9.40;;;;;;;1.59;73.70;99199.22;124528;1105;104159;-78
2021/03/15 01:41:39;;;;;;;16.70;9.80;;;;;;;1.59;73.94;99196.66;124524;1105;104254;-79
2021/03/15 01:44:06;;;;;;;16.60;9.80;;;;;;;1.57;73.75;99198.39;124515;1105;104162;-78
2021/03/15 01:46:33;;;;;;;16.43;9.67;;;;;;;1.57;73.96;99197.55;124536;1105;104350;-79
2021/03/15 01:49:01;;;;;;;17.77;10.00;;;;;;;1.56;73.90;99195.84;124484;1104;103968;-78
2021/03/15 01:51:28;;;;;;;16.20;9.40;;;;;;;1.52;73.97;99202.75;124622;1105;104255;-78
2021/03/15 01:53:55;;;;;;;16.97;10.80;;;;;;;1.44;73.80;99191.73;124565;1105;104322;-79
2021/03/15 01:56:22;;;;;;;20.60;11.03;;;;;;;1.39;73.92;99193.48;124587;1105;104226;-78
2021/03/15 01:58:50;;;;;;;17.43;10.77;;;;;;;1.34;73.91;99192.70;124493;1105;104437;-78
2021/03/15 02:01:17;;;;;;;19.00;10.23;;;;;;;1.26;74.03;99192.80;124825;1105;104560;-78
2021/03/15 02:03:45;;;;;;;20.00;11.20;;;;;;;1.20;74.25;99197.98;124551;1105;104264;-78
2021/03/15 02:06:12;;;;;;;19.17;10.97;;;;;;;1.17;74.59;99193.73;124493;1105;104111;-79
2021/03/15 02:08:39;;;;;;;18.63;11.00;;;;;;;1.14;74.45;99198.91;124478;1106;104204;-77
2021/03/15 02:11:20;;;;;;;22.33;11.23;;;;;;;1.13;74.82;99198.93;124505;1105;104162;-79
2021/03/15 02:14:17;;;;;;;22.17;12.03;;;;;;;1.06;74.79;99190.42;124512;1105;104107;-78
2021/03/15 02:17:23;;;;;;;23.77;12.37;;;;;;;1.07;75.22;99204.95;124497;1105;104254;-79
2021/03/15 02:20:09;;;;;;;19.13;10.50;;;;;;;1.02;75.34;99196.47;124216;1109;104326;-80
2021/03/15 02:22:45;;;;;;;21.95;13.00;;;;;;;0.97;75.03;99198.23;124282;1109;102595;-79
2021/03/15 02:25:50;;;;;;;22.27;12.85;;;;;;;0.95;75.71;99201.69;124217;1108;104190;-79
2021/03/15 02:28:42;;;;;;;21.80;12.97;;;;;;;0.88;75.23;99200.87;124256;1109;104118;-79
2021/03/15 02:31:48;;;;;;;22.50;12.13;;;;;;;0.79;75.74;99201.83;124245;1109;104284;-79
2021/03/15 02:34:15;;;;;;;19.83;12.03;;;;;;;0.71;76.06;99202.75;124179;1109;104098;-79
2021/03/15 02:36:46;;;;;;;20.70;12.40;;;;;;;0.64;76.25;99201.13;124201;1109;104274;-79
2021/03/15 02:39:23;;;;;;;21.55;12.05;;;;;;;0.61;76.15;99199.44;124213;1109;104271;-79
2021/03/15 02:41:52;;;;;;;24.40;12.27;;;;;;;0.57;76.69;99196.05;124437;1109;104322;-79
2021/03/15 02:44:21;;;;;;;24.77;12.17;;;;;;;0.54;76.21;99201.22;124210;1109;104277;-78
2021/03/15 02:46:50;;;;;;;21.23;13.00;;;;;;;0.55;76.47;99204.63;124241;1112;104367;-78
2021/03/15 02:49:18;;;;;;;19.77;11.97;;;;;;;0.54;76.83;99196.09;124235;1109;104305;-78
2021/03/15 02:51:50;;;;;;;25.43;14.83;;;;;;;0.56;76.47;99204.62;124234;1109;104223;-78
2021/03/15 02:54:19;;;;;;;30.07;14.73;;;;;;;0.56;76.78;99199.48;124308;1109;104386;-79
2021/03/15 02:56:48;;;;;;;29.13;15.47;;;;;;;0.57;76.85;99201.19;124494;1109;104140;-77
2021/03/15 02:59:17;;;;;;;28.73;15.73;;;;;;;0.56;76.66;99209.75;124581;1106;104238;-78
2021/03/15 03:01:46;;;;;;;27.30;15.30;;;;;;;0.57;76.85;99208.88;124536;1106;102001;-78
2021/03/15 03:04:13;;;;;;;27.20;15.53;;;;;;;0.57;76.38;99208.03;124523;1105;104136;-78
2021/03/15 03:06:43;;;;;;;27.90;16.33;;;;;;;0.56;76.64;99214.03;124526;1109;104136;-79
2021/03/15 03:09:15;;;;;;;25.90;15.00;;;;;;;0.54;76.91;99206.34;124497;1105;104149;-78
2021/03/15 03:11:43;;;;;;;25.63;14.57;;;;;;;0.53;76.53;99216.59;124551;1109;102370;-78
2021/03/15 03:14:12;;;;;;;26.47;14.53;;;;;;;0.51;76.83;99216.61;124615;1106;104195;-78
2021/03/15 03:16:41;;;;;;;25.30;14.27;;;;;;;0.52;76.73;99223.44;124504;1106;104354;-79
2021/03/15 03:19:12;;;;;;;23.97;13.77;;;;;;;0.50;76.34;99227.73;124522;1106;104191;-78
2021/03/15 03:21:41;;;;;;;23.50;13.10;;;;;;;0.49;77.09;99230.31;124526;1105;104139;-79
2021/03/15 03:24:10;;;;;;;20.33;12.60;;;;;;;0.48;76.96;99206.38;124596;1105;104107;-79
2021/03/15 03:26:38;;;;;;;20.60;12.93;;;;;;;0.48;76.92;99220.92;124542;1105;105748;-78
2021/03/15 03:29:08;;;;;;;22.57;13.43;;;;;;;0.47;76.83;99225.20;124533;1106;104207;-79
2021/03/15 03:31:40;;;;;;;24.37;14.67;;;;;;;0.47;76.88;99232.05;124504;1109;104166;-79
2021/03/15 03:34:08;;;;;;;26.07;15.17;;;;;;;0.47;76.93;99225.20;124560;1106;104262;-79
2021/03/15 03:36:35;;;;;;;29.63;15.50;;;;;;;0.47;76.84;99230.33;124691;1105;104208;-79
2021/03/15 03:39:06;;;;;;;26.27;14.87;;;;;;;0.48;76.82;99233.74;124524;1109;103185;-79
2021/03/15 03:41:34;;;;;;;21.80;12.57;;;;;;;0.46;76.50;99241.45;124485;1109;103944;-79
2021/03/15 03:44:07;;;;;;;24.13;13.97;;;;;;;0.44;76.83;99239.77;124646;1105;104162;-79
2021/03/15 03:46:34;;;;;;;26.27;14.17;;;;;;;0.41;77.10;99239.80;124526;1109;104214;-78
2021/03/15 03:49:04;;;;;;;23.70;12.20;;;;;;;0.36;76.89;99252.66;124782;1105;104111;-79
2021/03/15 03:51:39;;;;;;;23.93;14.10;;;;;;;0.32;77.02;99245.83;124727;1105;104219;-78
2021/03/15 03:54:15;;;;;;;25.80;14.77;;;;;;;0.30;76.78;99248.41;124491;1109;104264;-79
2021/03/15 03:56:53;;;;;;;20.80;13.00;;;;;;;0.28;76.95;99245.00;124552;1105;104217;-79
2021/03/15 03:59:24;;;;;;;22.57;13.13;;;;;;;0.27;76.94;99257.84;124558;1106;104105;-78
2021/03/15 04:01:56;;;;;;;25.67;13.67;;;;;;;0.24;76.76;99252.73;124533;1109;104175;-78
2021/03/15 04:04:26;;;;;;;22.43;13.60;;;;;;;0.21;76.93;99253.61;124539;1105;104290;-79
2021/03/15 04:06:54;;;;;;;22.17;13.53;;;;;;;0.18;77.04;99247.63;124690;1105;104136;-79
2021/03/15 04:09:28;;;;;;;25.07;13.83;;;;;;;0.15;77.53;99243.38;124701;1105;104159;-78
2021/03/15 04:12:00;;;;;;;23.87;13.43;;;;;;;0.13;77.66;99245.09;124597;1108;104178;-79
2021/03/15 04:14:30;;;;;;;22.53;12.30;;;;;;;0.11;77.40;99235.72;124541;1105;104169;-79
2021/03/15 04:17:02;;;;;;;24.87;13.33;;;;;;;0.10;77.45;99244.27;124720;1105;104538;-79
2021/03/15 04:19:38;;;;;;;25.03;14.10;;;;;;;0.08;77.30;99246.84;124530;1107;104226;-79
2021/03/15 04:22:11;;;;;;;25.97;13.90;;;;;;;0.05;77.22;99240.89;124588;1105;104422;-79
2021/03/15 04:24:40;;;;;;;22.73;12.80;;;;;;;0.05;77.40;99238.33;124761;1105;104082;-79
2021/03/15 04:27:09;;;;;;;21.30;12.93;;;;;;;0.03;77.60;99243.47;124790;1105;104165;-78
2021/03/15 04:29:39;;;;;;;22.77;13.33;;;;;;;0.03;77.21;99247.74;124560;1106;104284;-79
2021/03/15 04:32:09;;;;;;;22.73;14.07;;;;;;;0.02;77.15;99246.04;124799;1105;104293;-79
2021/03/15 04:34:37;;;;;;;26.85;14.95;;;;;;;0.07;77.47;99251.98;124644;1105;104214;-79
2021/03/15 04:37:07;;;;;;;26.30;15.97;;;;;;;0.11;77.67;99246.82;124563;1107;104134;-78
2021/03/15 04:39:36;;;;;;;28.00;15.43;;;;;;;0.17;77.94;99245.92;124575;1105;104123;-79
2021/03/15 04:42:05;;;;;;;25.17;16.10;;;;;;;0.21;77.81;99248.48;124551;1106;104658;-79
2021/03/15 04:44:33;;;;;;;27.87;15.70;;;;;;;0.24;77.74;99247.61;124530;1105;104172;-79
2021/03/15 04:47:02;;;;;;;26.23;15.60;;;;;;;0.25;77.86;99255.28;124511;1106;103960;-79
2021/03/15 04:49:32;;;;;;;24.70;14.90;;;;;;;0.28;77.44;99257.83;124548;1106;104223;-79
2021/03/15 04:52:02;;;;;;;26.57;15.10;;;;;;;0.32;77.94;99262.93;124625;1106;104300;-78
2021/03/15 04:54:30;;;;;;;25.90;15.10;;;;;;;0.32;77.58;99261.22;124551;1106;103168;-78
2021/03/15 04:56:59;;;;;;;25.33;15.07;;;;;;;0.32;77.68;99266.34;124474;1109;104175;-79
2021/03/15 04:59:30;;;;;;;30.47;14.37;;;;;;;0.34;78.33;99274.03;124674;1105;104145;-79
2021/03/15 05:01:59;;;;;;;30.37;16.83;;;;;;;0.35;78.21;99274.02;124787;1105;103935;-79
2021/03/15 05:04:27;;;;;;;27.75;15.05;;;;;;;0.40;77.87;99281.70;124610;1105;105806;-79
2021/03/15 05:06:55;;;;;;;26.10;14.83;;;;;;;0.44;78.13;99279.09;124776;1106;104143;-79
2021/03/15 05:09:24;;;;;;;28.63;15.07;;;;;;;0.48;78.00;99280.77;124572;1105;104114;-79
2021/03/15 05:11:51;;;;;;;21.77;13.60;;;;;;;0.54;77.61;99285.03;124558;1109;104159;-79
2021/03/15 05:14:19;;;;;;;27.00;15.23;;;;;;;0.59;77.96;99283.28;124489;1105;104111;-79
2021/03/15 05:16:46;;;;;;;26.90;15.97;;;;;;;0.70;77.52;99290.88;124535;1108;104441;-79
2021/03/15 05:19:14;;;;;;;25.40;14.83;;;;;;;0.74;77.79;99284.87;124573;1109;104232;-79
2021/03/15 05:21:44;;;;;;;27.47;15.90;;;;;;;0.79;77.69;99283.12;124514;1105;104281;-78
2021/03/15 05:24:12;;;;;;;28.60;16.07;;;;;;;0.84;77.07;99281.35;124562;1105;104117;-79
2021/03/15 05:26:40;;;;;;;29.63;16.10;;;;;;;0.88;77.49;99289.01;124590;1106;104169;-79
2021/03/15 05:29:11;;;;;;;28.50;16.70;;;;;;;0.94;77.61;99285.56;124591;1105;104184;-79
2021/03/15 05:31:43;;;;;;;23.23;15.60;;;;;;;0.97;76.95;99282.11;124568;1109;104114;-79
2021/03/15 05:34:12;;;;;;;27.60;17.10;;;;;;;0.99;77.09;99282.95;124576;1105;104338;-79
2021/03/15 05:36:42;;;;;;;28.13;16.60;;;;;;;1.04;77.14;99283.74;124577;1105;104182;-79
2021/03/15 05:39:09;;;;;;;26.30;16.37;;;;;;;1.06;76.85;99282.01;124677;1105;104201;-78
2021/03/15 05:41:52;;;;;;;26.47;16.33;;;;;;;1.10;77.36;99293.98;124528;1108;104210;-79
2021/03/15 05:44:57;;;;;;;31.77;18.13;;;;;;;1.10;77.30;99279.42;124554;1105;104653;-78
2021/03/15 05:47:46;;;;;;;26.70;16.63;;;;;;;1.14;77.43;99293.93;124653;1105;103974;-78
2021/03/15 05:51:05;;;;;;;30.03;16.07;;;;;;;1.14;77.16;99288.80;124523;1106;104047;-79
2021/03/15 05:54:10;;;;;;;28.38;17.32;;;;;;;1.16;77.18;99281.07;124468;1109;104304;-78
2021/03/15 05:57:05;;;;;;;31.77;18.40;;;;;;;1.13;77.45;99293.95;124414;1109;104171;-79
2021/03/15 05:59:57;;;;;;;33.63;17.07;;;;;;;1.14;77.11;99293.08;124270;1112;104277;-79
2021/03/15 06:02:43;;;;;;;30.40;17.20;;;;;;;1.15;77.45;99300.77;124269;1109;104297;-79
2021/03/15 06:05:24;;;;;;;32.00;17.07;;;;;;;1.17;77.34;99291.33;124289;1109;104117;-79
2021/03/15 06:08:01;;;;;;;31.87;17.40;;;;;;;1.19;77.46;99299.87;124237;1112;104357;-79
2021/03/15 06:10:34;;;;;;;27.10;16.03;;;;;;;1.23;77.82;99304.97;124232;1109;104120;-78
2021/03/15 06:13:13;;;;;;;27.75;16.80;;;;;;;1.23;77.92;99307.54;124417;1109;104203;-78
2021/03/15 06:15:42;;;;;;;31.07;18.77;;;;;;;1.24;77.64;99307.52;124179;1112;104413;-77
2021/03/15 06:18:14;;;;;;;26.87;16.17;;;;;;;1.26;77.91;99307.50;124256;1109;104296;-79
2021/03/15 06:20:44;;;;;;;32.00;17.87;;;;;;;1.33;77.92;99306.59;124278;1109;103159;-77
2021/03/15 06:23:15;;;;;;;35.70;19.93;;;;;;;1.37;77.62;99303.97;124217;1112;105610;-78
2021/03/15 06:25:47;;;;;;;31.73;19.40;;;;;;;1.47;77.70;99309.88;124246;1112;104239;-79
2021/03/15 06:28:16;;;;;;;36.50;21.93;;;;;;;1.54;77.53;99308.94;124245;1110;104157;-78
2021/03/15 06:30:45;;;;;;;36.77;20.10;;;;;;;1.61;77.62;99312.28;124554;1109;104114;-79
2021/03/15 06:33:14;;;;;;;36.93;20.53;;;;;;;1.67;77.37;99313.09;124517;1105;104257;-78
2021/03/15 06:35:44;;;;;;;40.00;23.13;;;;;;;1.71;77.39;99312.17;124593;1106;104099;-80
2021/03/15 06:38:14;;;;;;;37.53;21.87;;;;;;;1.78;77.50;99311.22;124541;1106;104163;-79
2021/03/15 06:41:05;;;;;;;37.47;22.87;;;;;;;1.87;77.51;99315.42;124512;1106;104143;-78
2021/03/15 06:43:32;;;;;;;44.27;23.77;;;;;;;1.92;77.18;99310.22;124554;1105;104200;-79
2021/03/15 06:46:00;;;;;;;39.97;24.10;;;;;;;2.01;77.25;99317.84;124537;1106;104567;-79
2021/03/15 06:48:28;;;;;;;44.63;25.70;;;;;;;2.06;77.46;99324.61;124538;1106;104192;-78
2021/03/15 06:50:57;;;;;;;45.03;26.37;;;;;;;2.10;77.21;99327.98;124525;1109;104137;-78
2021/03/15 06:53:34;;;;;;;46.00;25.30;;;;;;;2.16;77.18;99330.51;124589;1109;103656;-80
2021/03/15 06:56:02;;;;;;;42.50;23.90;;;;;;;2.23;77.27;99334.69;124538;1105;104220;-79
2021/03/15 06:58:34;;;;;;;44.40;25.20;;;;;;;2.26;76.97;99332.07;124524;1105;105613;-78
2021/03/15 07:01:07;;;;;;;48.40;26.03;;;;;;;2.30;76.93;99327.73;124530;1109;104092;-79
2021/03/15 07:03:35;;;;;;;45.63;25.60;;;;;;;2.29;76.93;99321.73;124521;1105;104563;-79
2021/03/15 07:06:04;;;;;;;45.13;25.57;;;;;;;2.32;77.06;99325.98;124526;1108;103948;-79
2021/03/15 07:08:31;;;;;;;47.40;27.27;;;;;;;2.38;77.32;99320.77;124621;1106;104191;-79
2021/03/15 07:11:27;;;;;;;53.42;26.95;;;;;;;2.44;77.22;99328.40;124604;1106;103945;-80
2021/03/15 07:13:55;;;;;;;49.53;27.77;;;;;;;2.49;77.05;99331.75;124534;1109;104277;-79
2021/03/15 07:16:30;;;;;;;51.17;26.67;;;;;;;2.54;76.92;99334.28;124592;1109;104133;-79
2021/03/15 07:18:59;;;;;;;53.77;28.77;;;;;;;2.61;76.94;99331.58;124492;1105;104009;-78
2021/03/15 07:21:37;;;;;;;51.67;28.67;;;;;;;2.66;77.03;99323.78;124512;1109;104162;-79
2021/03/15 07:24:11;;;;;;;50.87;26.63;;;;;;;2.70;77.06;99323.74;124527;1106;103941;-80
2021/03/15 07:26:46;;;;;;;48.07;27.47;;;;;;;2.73;77.08;99325.41;124541;1106;104114;-78
2021/03/15 07:29:18;;;;;;;53.97;30.30;;;;;;;2.78;77.01;99331.34;124771;1105;104194;-79
2021/03/15 07:31:49;;;;;;;51.77;27.60;;;;;;;2.86;76.69;99331.20;124485;1109;104117;-78
2021/03/15 07:34:20;;;;;;;55.77;29.77;;;;;;;2.90;76.26;99330.30;124566;1108;104045;-79
2021/03/15 07:36:52;;;;;;;52.97;28.80;;;;;;;2.96;76.78;99328.47;124514;1106;104187;-78
2021/03/15 07:39:24;;;;;;;59.20;31.40;;;;;;;3.06;76.60;99333.48;124781;1105;103009;-79
2021/03/15 07:41:53;;;;;;;59.77;31.00;;;;;;;3.11;76.18;99335.11;124505;1109;103102;-78
2021/03/15 07:44:29;;;;;;;58.93;31.17;;;;;;;3.20;76.39;99329.78;124555;1105;104736;-79
2021/03/15 07:47:03;;;;;;;50.63;29.77;;;;;;;3.30;75.96;99333.06;124587;1106;104223;-78
2021/03/15 07:49:36;;;;;;;54.57;30.97;;;;;;;3.35;76.16;99341.56;124552;1105;104216;-80
2021/03/15 07:52:09;;;;;;;56.33;30.87;;;;;;;3.37;75.90;99334.65;124561;1105;102860;-79
2021/03/15 07:54:38;;;;;;;60.63;32.80;;;;;;;3.40;75.67;99339.74;124520;1105;102882;-78
2021/03/15 07:57:22;;;;;;;61.67;32.60;;;;;;;3.43;75.71;99338.87;124521;1109;104431;-79
2021/03/15 07:59:54;;;;;;;57.23;32.20;;;;;;;3.43;75.50;99341.44;124532;1105;104265;-78
2021/03/15 08:02:23;;;;;;;53.80;30.25;;;;;;;3.44;75.57;99340.56;124565;1106;104107;-79
2021/03/15 08:04:53;;;;;;;47.30;27.93;;;;;;;3.45;75.45;99337.11;124543;1105;104695;-79
2021/03/15 08:07:22;;;;;;;48.00;28.70;;;;;;;3.48;75.68;99337.90;124521;1106;104255;-79
2021/03/15 08:09:52;;;;;;;45.30;26.03;;;;;;;3.51;75.41;99337.84;124533;1109;104149;-79
2021/03/15 08:12:23;;;;;;;44.20;25.40;;;;;;;3.52;75.45;99339.53;124569;1105;104098;-79
2021/03/15 08:15:02;;;;;;;44.30;26.57;;;;;;;3.50;75.11;99348.18;124489;1105;104530;-79
2021/03/15 08:17:30;;;;;;;49.23;28.20;;;;;;;3.52;75.54;99346.42;124634;1105;102902;-79
2021/03/15 08:20:01;;;;;;;41.93;25.23;;;;;;;3.54;75.25;99345.52;124604;1105;103056;-79
2021/03/15 08:22:32;;;;;;;45.03;26.53;;;;;;;3.56;75.07;99354.06;124500;1106;104236;-78
2021/03/15 08:25:01;;;;;;;45.03;25.53;;;;;;;3.58;75.28;99343.72;124531;1106;102860;-78
2021/03/15 08:27:31;;;;;;;38.40;22.50;;;;;;;3.61;75.11;99344.54;124553;1106;104303;-81
2021/03/15 08:30:01;;;;;;;42.30;23.43;;;;;;;3.67;75.26;99347.88;124579;1109;104127;-79
2021/03/15 08:32:35;;;;;;;35.63;20.90;;;;;;;3.70;74.82;99343.50;124616;1105;104136;-79
2021/03/15 08:35:07;;;;;;;35.15;20.60;;;;;;;3.78;74.55;99343.38;124451;1109;106016;-78
2021/03/15 08:37:52;;;;;;;36.20;21.57;;;;;;;3.86;74.29;99342.34;124595;1105;104227;-79
2021/03/15 08:40:37;;;;;;;33.75;20.20;;;;;;;3.94;74.45;99347.33;124583;1105;103624;-79
2021/03/15 08:43:17;;;;;;;35.27;21.30;;;;;;;4.00;74.22;99342.07;124630;1105;104191;-79
2021/03/15 08:45:50;;;;;;;34.57;20.80;;;;;;;4.10;74.07;99343.56;124771;1106;104109;-78
2021/03/15 08:48:23;;;;;;;34.17;21.13;;;;;;;4.21;74.09;99344.21;124567;1106;104374;-78
2021/03/15 08:50:54;;;;;;;31.03;20.13;;;;;;;4.32;73.70;99346.58;124574;1109;104208;-78
2021/03/15 08:53:53;;;;;;;35.87;21.37;;;;;;;4.39;73.80;99347.29;124569;1109;104098;-78
2021/03/15 08:56:20;;;;;;;37.70;21.83;;;;;;;4.50;73.80;99347.92;124495;1105;103017;-79
2021/03/15 08:58:54;;;;;;;36.83;21.42;;;;;;;4.61;73.58;99355.41;124759;1105;104217;-79
2021/03/15 09:01:42;;;;;;;33.43;19.90;;;;;;;4.69;73.36;99346.63;124531;1105;104275;-79
2021/03/15 09:04:30;;;;;;;32.40;19.03;;;;;;;4.74;73.04;99349.94;124610;1105;104220;-79
2021/03/15 09:06:59;;;;;;;27.93;17.10;;;;;;;4.78;71.91;99348.13;124512;1105;104258;-78
2021/03/15 09:09:31;;;;;;;32.03;18.87;;;;;;;4.80;71.91;99351.53;124627;1106;104109;-79
2021/03/15 09:12:00;;;;;;;33.83;20.00;;;;;;;4.83;71.77;99352.30;124597;1105;104274;-78
2021/03/15 09:14:33;;;;;;;31.73;19.17;;;;;;;4.92;72.33;99355.57;124551;1105;104319;-79
2021/03/15 09:17:21;;;;;;;32.80;19.77;;;;;;;4.99;71.92;99351.95;124531;1109;104724;-78
2021/03/15 09:19:49;;;;;;;29.40;19.53;;;;;;;5.02;71.54;99357.03;124730;1106;104146;-78
2021/03/15 09:22:30;;;;;;;27.73;17.93;;;;;;;5.03;71.61;99358.77;124579;1105;104149;-79
2021/03/15 09:25:21;;;;;;;27.00;18.30;;;;;;;5.04;71.37;99361.31;124702;1109;103082;-79
2021/03/15 09:27:54;;;;;;;27.23;18.23;;;;;;;5.06;71.37;99356.95;124575;1105;104076;-80
2021/03/15 09:30:35;;;;;;;27.67;19.17;;;;;;;5.13;70.76;99350.73;124545;1106;104201;-79
2021/03/15 09:33:04;;;;;;;27.50;18.27;;;;;;;5.29;70.83;99350.36;124538;1105;103999;-79
2021/03/15 09:35:37;;;;;;;29.27;19.70;;;;;;;5.46;71.16;99351.63;124578;1105;104627;-79
2021/03/15 09:38:10;;;;;;;29.17;18.47;;;;;;;5.64;70.87;99352.05;124826;1105;103074;-78
2021/03/15 09:40:40;;;;;;;30.30;18.90;;;;;;;5.77;70.39;99348.25;124662;1105;104130;-78
2021/03/15 09:43:28;;;;;;;29.83;19.90;;;;;;;5.95;70.14;99342.61;124737;1105;104214;-79
2021/03/15 09:46:09;;;;;;;34.80;20.20;;;;;;;6.20;70.35;99347.08;124575;1108;104596;-77
2021/03/15 09:48:38;;;;;;;31.50;20.30;;;;;;;6.58;70.21;99344.20;124762;1104;104239;-78
2021/03/15 09:51:08;;;;;;;33.57;21.10;;;;;;;7.34;70.19;99337.47;124543;1106;104336;-79
2021/03/15 09:53:56;;;;;;;32.53;20.57;;;;;;;8.02;68.47;99344.63;124475;1105;104139;-78
2021/03/15 09:56:27;;;;;;;29.33;20.23;;;;;;;8.17;67.34;99342.31;124520;1106;104290;-78
2021/03/15 09:59:10;;;;;;;27.50;19.57;;;;;;;8.28;67.13;99346.28;124523;1105;104172;-79
2021/03/15 10:01:44;;;;;;;31.83;19.87;;;;;;;8.28;65.90;99343.69;124529;1106;104117;-79
2021/03/15 10:04:41;;;;;;;31.60;18.33;;;;;;;8.29;65.30;99340.18;124513;1106;104265;-77
2021/03/15 10:07:27;;;;;;;27.80;19.77;;;;;;;8.29;65.09;99335.83;124480;1105;104156;-80
2021/03/15 10:10:16;;;;;;;28.50;19.95;;;;;;;8.37;64.76;99341.61;124577;1105;104011;-82
2021/03/15 10:13:07;;;;;;;29.07;19.37;;;;;;;8.57;64.51;99332.20;124677;1105;104163;-79
2021/03/15 10:15:46;;;;;;;26.73;19.20;;;;;;;8.67;64.15;99328.36;124798;1105;103015;-79
2021/03/15 10:18:29;;;;;;;28.98;20.85;;;;;;;8.97;64.27;99327.12;124504;1109;103084;-78
2021/03/15 10:21:00;;;;;;;28.30;20.00;;;;;;;9.48;64.34;99325.89;124759;1105;104313;-79
2021/03/15 10:23:33;;;;;;;25.67;19.33;;;;;;;10.09;63.93;99323.24;124615;1105;104268;-80
2021/03/15 10:26:05;;;;;;;25.33;18.40;;;;;;;10.66;61.92;99321.51;124771;1106;104290;-79
2021/03/15 10:28:55;;;;;;;28.77;19.57;;;;;;;11.20;62.46;99311.94;124558;1105;104219;-79
2021/03/15 10:31:30;;;;;;;28.13;19.40;;;;;;;11.70;60.05;99305.94;124582;1105;102963;-79
2021/03/15 10:33:59;;;;;;;22.97;17.83;;;;;;;12.12;59.85;99300.25;124539;1105;104249;-79
2021/03/15 10:36:33;;;;;;;24.70;17.73;;;;;;;12.80;59.22;99295.62;124569;1105;104169;-80
2021/03/15 10:39:29;;;;;;;25.93;17.80;;;;;;;13.60;57.81;99286.63;124465;1109;102714;-79
2021/03/15 10:41:58;;;;;;;22.17;16.73;;;;;;;14.21;56.21;99286.38;124581;1105;104162;-80
2021/03/15 10:44:28;;;;;;;19.95;15.75;;;;;;;14.74;54.13;99279.54;124546;1109;104098;-80
2021/03/15 10:47:02;;;;;;;23.30;16.30;;;;;;;14.54;51.53;99273.86;124563;1105;103970;-79
2021/03/15 10:49:34;;;;;;;23.03;17.73;;;;;;;14.48;51.38;99280.34;124591;1106;103980;-79
2021/03/15 10:52:39;;;;;;;20.90;15.87;;;;;;;14.71;53.04;99260.50;124479;1109;104306;-80
2021/03/15 10:55:15;;;;;;;20.30;14.95;;;;;;;15.07;51.68;99273.00;124246;1109;102140;-80
2021/03/15 10:58:00;;;;;;;20.03;15.87;;;;;;;15.30;51.46;99272.34;124413;1106;104325;-80
2021/03/15 11:00:31;;;;;;;17.77;14.83;;;;;;;15.51;51.15;99277.09;124561;1106;104191;-80
2021/03/15 11:03:00;;;;;;;18.07;14.47;;;;;;;15.54;50.08;99268.99;124566;1109;104194;-80
2021/03/15 11:05:27;;;;;;;23.23;16.13;;;;;;;15.17;49.20;99262.75;124665;1105;104111;-79
2021/03/15 11:07:55;;;;;;;21.13;16.03;;;;;;;14.64;47.84;99259.22;124533;1105;104264;-80
2021/03/15 11:10:27;;;;;;;22.17;15.53;;;;;;;14.28;49.77;99257.13;124565;1105;104280;-79
2021/03/15 11:13:14;;;;;;;15.67;12.30;;;;;;;14.01;48.16;99265.79;124494;1105;104217;-79
2021/03/15 11:15:42;;;;;;;19.03;12.97;;;;;;;13.66;48.77;99262.70;124546;1105;104325;-79
2021/03/15 11:18:25;;;;;;;17.87;12.90;;;;;;;13.58;48.80;99263.14;124551;1105;104133;-80
2021/03/15 11:21:02;;;;;;;16.82;12.30;;;;;;;13.56;49.94;99253.69;124592;1105;104163;-79
2021/03/15 11:23:44;;;;;;;16.70;13.13;;;;;;;13.33;49.39;99252.45;124572;1106;104214;-80
2021/03/15 11:26:52;;;;;;;15.43;12.20;;;;;;;12.91;49.37;99247.89;124513;1105;104172;-80
2021/03/15 11:29:36;;;;;;;17.97;12.33;;;;;;;12.80;50.00;99242.45;124762;1106;105297;-79
2021/03/15 11:32:13;;;;;;;14.93;11.00;;;;;;;12.69;49.13;99241.27;124541;1106;104111;-79
2021/03/15 11:34:47;;;;;;;15.03;10.80;;;;;;;12.50;48.98;99245.86;124752;1105;104309;-78
2021/03/15 11:37:22;;;;;;;15.63;10.73;;;;;;;12.17;50.40;99245.94;124541;1105;102779;-79
2021/03/15 11:39:53;;;;;;;14.20;10.80;;;;;;;12.11;49.89;99238.44;124532;1105;102706;-78